Time;durP1;ratioP1;P1;durP2;ratioP2;P2;SDS_P1;SDS_P2;PMS_P1;PMS_P2;Temp;Humidity;BMP_temperature;BMP_pressure;BME280_temperature;BME280_humidity;BME280_pressure;Samples;Min_cycle;Max_cycle;Signal;HPM_P1;HPM_P2
2021/04/03 00:00:48;;;;;;;67.50;44.10;;;14.40;93.80;;;;;;5117735;28;20031;-73
2021/04/03 00:03:15;;;;;;;65.63;43.60;;;14.30;94.20;;;;;;5118251;28;20145;-78
2021/04/03 00:05:41;;;;;;;77.28;49.28;;;14.30;93.50;;;;;;5119493;28;20020;-71
2021/04/03 00:08:08;;;;;;;64.20;42.50;;;14.20;94.30;;;;;;5118355;28;20022;-72
2021/04/03 00:10:42;;;;;;;60.20;40.63;;;14.10;94.30;;;;;;5118996;28;20016;-77
2021/04/03 00:13:08;;;;;;;52.13;35.67;;;13.90;95.00;;;;;;5118499;28;20059;-78
2021/04/03 00:15:34;;;;;;;49.53;31.48;;;13.90;94.70;;;;;;5115932;28;20024;-71
2021/04/03 00:18:00;;;;;;;37.95;25.23;;;13.80;94.40;;;;;;5115416;28;20023;-79
2021/04/03 00:20:30;;;;;;;34.65;23.20;;;13.90;92.40;;;;;;5116253;28;20048;-70
2021/04/03 00:22:56;;;;;;;34.85;24.48;;;13.90;92.50;;;;;;5115436;28;20177;-75
2021/04/03 00:25:22;;;;;;;35.38;23.05;;;13.80;93.20;;;;;;5119789;28;20032;-76
2021/04/03 00:27:48;;;;;;;35.72;22.88;;;13.90;93.20;;;;;;5116726;28;20023;-77
2021/04/03 00:30:17;;;;;;;36.17;23.60;;;13.80;92.60;;;;;;5117779;28;20035;-71
2021/04/03 00:32:54;;;;;;;30.52;21.35;;;13.80;93.80;;;;;;5118856;28;20501;-71
2021/04/03 00:35:26;;;;;;;35.90;23.27;;;13.70;92.90;;;;;;5121686;28;20025;-72
2021/04/03 00:37:53;;;;;;;30.25;20.67;;;13.70;93.50;;;;;;5120759;28;20028;-70
2021/04/03 00:40:40;;;;;;;31.80;20.42;;;13.70;93.00;;;;;;5121799;28;20026;-78
2021/04/03 00:43:15;;;;;;;33.75;21.20;;;13.70;93.30;;;;;;5120383;28;20027;-76
2021/04/03 00:45:42;;;;;;;34.03;20.73;;;13.60;93.00;;;;;;5122513;28;20019;-74
2021/04/03 00:48:08;;;;;;;31.00;20.38;;;13.70;93.10;;;;;;5120493;28;20339;-70
2021/04/03 00:50:40;;;;;;;30.80;20.65;;;13.70;93.10;;;;;;5119544;28;20080;-71
2021/04/03 00:53:08;;;;;;;33.38;21.25;;;13.70;93.40;;;;;;5122542;28;20000;-76
2021/04/03 00:55:34;;;;;;;30.05;21.70;;;13.70;93.10;;;;;;5121080;28;20042;-70
2021/04/03 00:58:00;;;;;;;28.48;20.45;;;13.70;93.30;;;;;;5120636;28;20020;-77
2021/04/03 01:00:27;;;;;;;29.48;20.33;;;13.70;93.40;;;;;;5118828;27;20492;-70
2021/04/03 01:02:54;;;;;;;27.10;20.17;;;13.70;93.50;;;;;;5120922;28;20087;-76
2021/04/03 01:05:23;;;;;;;30.75;21.05;;;13.80;93.60;;;;;;5120479;28;20019;-76
2021/04/03 01:07:49;;;;;;;33.40;21.08;;;13.80;93.70;;;;;;5120314;28;20020;-72
2021/04/03 01:10:20;;;;;;;31.20;21.23;;;13.80;94.00;;;;;;5121608;28;20391;-78
2021/04/03 01:12:56;;;;;;;33.08;22.20;;;13.80;93.80;;;;;;5121993;28;20115;-74
2021/04/03 01:15:49;;;;;;;29.65;20.98;;;13.80;93.80;;;;;;5117236;28;20110;-76
2021/04/03 01:18:53;;;;;;;28.95;20.17;;;13.80;93.70;;;;;;5119266;28;20043;-72
2021/04/03 01:21:59;;;;;;;28.08;19.65;;;13.80;93.30;;;;;;5120888;28;20027;-75
2021/04/03 01:24:58;;;;;;;25.17;17.92;;;13.90;93.10;;;;;;5107141;28;20481;-70
2021/04/03 01:27:27;;;;;;;23.50;17.13;;;13.90;92.50;;;;;;5118844;28;20035;-70
2021/04/03 01:30:04;;;;;;;22.33;16.48;;;13.80;92.50;;;;;;5121229;27;20031;-72
2021/04/03 01:32:56;;;;;;;23.38;17.25;;;13.90;92.60;;;;;;5120617;28;20032;-78
2021/04/03 01:35:34;;;;;;;22.98;16.33;;;13.90;92.20;;;;;;5119617;28;20083;-79
2021/04/03 01:38:25;;;;;;;21.60;15.95;;;13.90;92.30;;;;;;5119501;28;20038;-72
2021/04/03 01:40:53;;;;;;;21.50;15.52;;;13.90;92.30;;;;;;5120393;28;20020;-71
2021/04/03 01:43:23;;;;;;;22.50;16.23;;;13.80;92.00;;;;;;5118396;28;20023;-77
2021/04/03 01:45:54;;;;;;;21.38;15.98;;;13.80;92.20;;;;;;5121008;28;20068;-78
2021/04/03 01:48:21;;;;;;;20.05;15.20;;;13.70;92.70;;;;;;5119624;28;20503;-77
2021/04/03 01:50:48;;;;;;;21.65;15.20;;;13.70;92.80;;;;;;5121887;28;20030;-71
2021/04/03 01:53:16;;;;;;;18.20;14.20;;;13.70;92.70;;;;;;5119980;28;20031;-72
2021/04/03 01:55:43;;;;;;;19.50;15.30;;;13.70;92.60;;;;;;5120820;27;20027;-71
2021/04/03 01:58:10;;;;;;;19.23;14.80;;;13.60;93.30;;;;;;5120656;28;20015;-72
2021/04/03 02:00:37;;;;;;;21.80;15.13;;;13.60;93.40;;;;;;5120359;28;20027;-77
2021/04/03 02:03:05;;;;;;;23.23;16.08;;;13.50;92.80;;;;;;5117549;28;20093;-74
2021/04/03 02:05:33;;;;;;;22.52;16.67;;;13.40;93.50;;;;;;5119552;28;20020;-71
2021/04/03 02:08:00;;;;;;;21.65;15.80;;;13.20;93.00;;;;;;5119023;28;20018;-71
2021/04/03 02:10:28;;;;;;;20.30;14.70;;;13.30;93.50;;;;;;5120273;28;20042;-74
2021/04/03 02:12:54;;;;;;;23.15;15.77;;;13.10;93.40;;;;;;5121388;28;20103;-73
2021/04/03 02:15:22;;;;;;;20.80;15.48;;;13.20;93.70;;;;;;5120603;28;20423;-70
2021/04/03 02:17:50;;;;;;;20.35;15.23;;;13.20;93.10;;;;;;5121665;28;20069;-71
2021/04/03 02:20:17;;;;;;;22.33;15.82;;;13.30;93.20;;;;;;5120509;28;20031;-73
2021/04/03 02:22:43;;;;;;;23.67;17.33;;;13.30;93.60;;;;;;5118935;28;20041;-72
2021/04/03 02:25:15;;;;;;;42.47;30.40;;;13.20;93.20;;;;;;5121921;28;20019;-78
2021/04/03 02:27:41;;;;;;;58.35;41.50;;;13.30;93.30;;;;;;5121220;28;20019;-77
2021/04/03 02:30:15;;;;;;;59.13;43.38;;;13.20;93.40;;;;;;5117986;28;20031;-77
2021/04/03 02:32:49;;;;;;;62.13;45.63;;;13.20;93.50;;;;;;5119349;28;20027;-74
2021/04/03 02:35:17;;;;;;;124.60;93.20;;;13.10;93.60;;;;;;5120278;28;20069;-76
2021/04/03 02:37:45;;;;;;;51.38;38.60;;;13.00;95.00;;;;;;5120552;28;20048;-77
2021/04/03 02:40:13;;;;;;;24.98;18.92;;;12.80;94.20;;;;;;5119201;28;20491;-76
2021/04/03 02:43:05;;;;;;;22.30;16.88;;;12.80;93.90;;;;;;5119045;28;20014;-72
2021/04/03 02:45:37;;;;;;;24.30;17.58;;;12.60;94.20;;;;;;5120817;28;20484;-72
2021/04/03 02:48:16;;;;;;;25.35;18.55;;;12.50;94.20;;;;;;5119531;28;20031;-76
2021/04/03 02:50:43;;;;;;;25.27;19.08;;;12.30;94.50;;;;;;5119552;28;20036;-73
2021/04/03 02:53:11;;;;;;;29.70;21.15;;;12.30;94.70;;;;;;5119957;28;20027;-77
2021/04/03 02:55:49;;;;;;;30.05;21.63;;;12.20;95.10;;;;;;5119337;28;20020;-77
2021/04/03 02:58:18;;;;;;;34.30;25.30;;;12.10;96.40;;;;;;5119066;28;20027;-71
2021/04/03 03:00:51;;;;;;;34.67;23.60;;;12.10;97.50;;;;;;5119004;28;20068;-70
2021/04/03 03:03:18;;;;;;;29.58;20.63;;;12.00;97.80;;;;;;5120122;28;20030;-77
2021/04/03 03:05:50;;;;;;;31.98;21.38;;;11.90;98.60;;;;;;5117970;28;20055;-72
2021/04/03 03:08:17;;;;;;;28.15;19.88;;;11.60;99.50;;;;;;5117285;28;20088;-70
2021/04/03 03:10:45;;;;;;;32.33;21.70;;;11.70;99.30;;;;;;5117625;28;20039;-69
2021/04/03 03:13:14;;;;;;;29.33;20.65;;;11.60;99.90;;;;;;5120408;28;20358;-68
2021/04/03 03:15:40;;;;;;;30.85;21.70;;;11.50;99.90;;;;;;5118419;28;20015;-78
2021/04/03 03:18:06;;;;;;;35.53;23.08;;;11.30;99.90;;;;;;5117940;28;20020;-75
2021/04/03 03:20:33;;;;;;;33.92;21.77;;;11.10;99.90;;;;;;5117757;28;20058;-76
2021/04/03 03:22:59;;;;;;;35.25;23.50;;;10.90;99.90;;;;;;5116569;28;20024;-78
2021/04/03 03:25:26;;;;;;;33.03;22.48;;;10.90;99.90;;;;;;5116508;28;20026;-69
2021/04/03 03:27:54;;;;;;;35.03;23.52;;;11.00;99.90;;;;;;5119325;28;20027;-70
2021/04/03 03:30:22;;;;;;;38.60;25.80;;;11.00;99.90;;;;;;5119030;28;20011;-78
2021/04/03 03:32:48;;;;;;;94.60;48.22;;;11.00;99.90;;;;;;5116944;28;20058;-77
2021/04/03 03:35:15;;;;;;;134.52;61.05;;;10.90;99.90;;;;;;5116462;28;20481;-77
2021/04/03 03:37:43;;;;;;;63.47;40.30;;;11.00;99.90;;;;;;5118590;28;20072;-75
2021/04/03 03:40:14;;;;;;;47.97;34.05;;;11.00;99.90;;;;;;5117488;28;20024;-69
2021/04/03 03:42:41;;;;;;;37.83;24.10;;;11.00;99.90;;;;;;5120221;28;20481;-68
2021/04/03 03:45:10;;;;;;;36.15;25.48;;;10.90;99.90;;;;;;5118186;28;20497;-75
2021/04/03 03:47:36;;;;;;;36.30;23.70;;;11.00;99.90;;;;;;5115713;28;20024;-68
2021/04/03 03:50:03;;;;;;;38.55;24.40;;;10.90;99.90;;;;;;5118755;28;20489;-69
2021/04/03 03:52:29;;;;;;;33.15;22.45;;;10.90;99.90;;;;;;5117981;28;20019;-68
2021/04/03 03:54:55;;;;;;;36.55;25.52;;;11.00;99.90;;;;;;5119032;28;20106;-68
2021/04/03 03:57:20;;;;;;;37.40;25.92;;;10.90;99.90;;;;;;5119250;28;20024;-70
2021/04/03 03:59:46;;;;;;;40.63;26.75;;;10.90;99.90;;;;;;5118042;28;20038;-74
2021/04/03 04:02:12;;;;;;;36.53;24.90;;;11.10;99.90;;;;;;5119598;28;20406;-68
2021/04/03 04:04:38;;;;;;;35.95;24.02;;;11.10;99.90;;;;;;5116473;28;20027;-76
2021/04/03 04:07:04;;;;;;;36.83;24.58;;;11.10;99.90;;;;;;5118846;28;20047;-69
2021/04/03 04:09:30;;;;;;;37.97;25.10;;;11.10;99.90;;;;;;5122034;28;20020;-69
2021/04/03 04:12:02;;;;;;;38.92;26.80;;;11.10;99.90;;;;;;5122875;28;20027;-69
2021/04/03 04:14:30;;;;;;;39.20;25.30;;;11.00;99.90;;;;;;5124528;28;20477;-76
2021/04/03 04:16:56;;;;;;;39.67;26.63;;;10.80;99.90;;;;;;5123619;28;20016;-76
2021/04/03 04:19:22;;;;;;;42.35;28.00;;;10.80;99.90;;;;;;5121352;28;20507;-70
2021/04/03 04:21:48;;;;;;;39.00;25.70;;;10.80;99.90;;;;;;5122156;28;20027;-68
2021/04/03 04:24:14;;;;;;;39.55;26.30;;;10.80;99.90;;;;;;5122701;28;20412;-69
2021/04/03 04:26:40;;;;;;;39.30;26.80;;;10.60;99.90;;;;;;5122226;28;20008;-76
2021/04/03 04:29:06;;;;;;;38.60;25.92;;;10.60;99.90;;;;;;5121854;28;20053;-68
2021/04/03 04:31:32;;;;;;;37.28;24.73;;;10.60;99.90;;;;;;5122538;27;20019;-70
2021/04/03 04:33:58;;;;;;;34.30;22.73;;;10.60;99.90;;;;;;5121469;28;20053;-68
2021/04/03 04:36:23;;;;;;;31.23;22.67;;;10.50;99.90;;;;;;5122517;28;20015;-69
2021/04/03 04:38:49;;;;;;;34.00;23.48;;;10.40;99.90;;;;;;5121701;28;20403;-72
2021/04/03 04:41:18;;;;;;;35.33;23.88;;;10.50;99.90;;;;;;5121835;28;20019;-73
2021/04/03 04:43:44;;;;;;;36.08;23.42;;;10.40;99.90;;;;;;5120701;28;20023;-70
2021/04/03 04:46:10;;;;;;;30.17;21.02;;;10.50;99.90;;;;;;5121239;28;20068;-75
2021/04/03 04:48:36;;;;;;;29.42;20.05;;;10.60;99.90;;;;;;5122386;28;20016;-69
2021/04/03 04:51:02;;;;;;;30.98;20.55;;;10.70;99.90;;;;;;5121586;28;20098;-75
2021/04/03 04:53:28;;;;;;;33.25;21.73;;;10.60;99.90;;;;;;5124891;28;20031;-76
2021/04/03 04:55:54;;;;;;;34.00;21.85;;;10.50;99.90;;;;;;5121157;28;20020;-74
2021/04/03 04:58:20;;;;;;;31.90;20.65;;;10.60;99.90;;;;;;5119743;28;20015;-75
2021/04/03 05:00:46;;;;;;;34.50;22.40;;;10.70;99.90;;;;;;5123175;28;20022;-68
2021/04/03 05:03:12;;;;;;;33.58;21.58;;;10.60;99.90;;;;;;5120465;28;20027;-70
2021/04/03 05:05:38;;;;;;;32.78;22.25;;;10.60;99.90;;;;;;5121533;28;20024;-76
2021/04/03 05:08:04;;;;;;;57.90;38.67;;;10.60;99.90;;;;;;5122223;28;20090;-68
2021/04/03 05:10:30;;;;;;;45.63;30.17;;;10.50;99.90;;;;;;5122900;28;20035;-75
2021/04/03 05:13:03;;;;;;;52.03;35.05;;;10.60;99.90;;;;;;5121551;28;20016;-74
2021/04/03 05:15:29;;;;;;;38.78;24.95;;;10.40;99.90;;;;;;5122658;28;20368;-68
2021/04/03 05:17:55;;;;;;;33.65;23.85;;;10.40;99.90;;;;;;5122160;28;20028;-70
2021/04/03 05:20:21;;;;;;;36.30;22.60;;;10.40;99.90;;;;;;5120879;28;20036;-68
2021/04/03 05:22:47;;;;;;;32.50;21.95;;;10.30;99.90;;;;;;5122357;28;20006;-74
2021/04/03 05:25:13;;;;;;;33.88;23.45;;;10.40;99.90;;;;;;5121418;28;20240;-75
2021/04/03 05:27:40;;;;;;;29.08;19.90;;;10.40;99.90;;;;;;5119991;28;20363;-70
2021/04/03 05:30:07;;;;;;;32.00;21.83;;;10.40;99.90;;;;;;5120743;28;20011;-75
2021/04/03 05:32:33;;;;;;;42.67;28.00;;;10.40;99.90;;;;;;5119773;28;20108;-73
2021/04/03 05:34:59;;;;;;;33.58;21.52;;;10.30;99.90;;;;;;5120714;28;20019;-69
2021/04/03 05:37:25;;;;;;;44.58;28.08;;;10.20;99.90;;;;;;5122482;28;20019;-74
2021/04/03 05:39:51;;;;;;;35.10;22.15;;;10.10;99.90;;;;;;5122072;28;20020;-74
2021/04/03 05:42:19;;;;;;;32.10;22.45;;;10.00;99.90;;;;;;5119131;28;20076;-68
2021/04/03 05:44:45;;;;;;;35.00;24.23;;;10.00;99.90;;;;;;5121301;28;20466;-69
2021/04/03 05:47:12;;;;;;;45.67;29.17;;;10.10;99.90;;;;;;5121921;28;20031;-74
2021/04/03 05:49:40;;;;;;;33.08;22.42;;;10.00;99.90;;;;;;5120610;28;20019;-74
2021/04/03 05:52:07;;;;;;;38.50;25.60;;;10.00;99.90;;;;;;5120339;28;20070;-69
2021/04/03 05:54:38;;;;;;;35.30;23.92;;;10.10;99.90;;;;;;5120486;28;20024;-73
2021/04/03 05:57:07;;;;;;;47.95;30.52;;;10.10;99.90;;;;;;5121448;28;20028;-70
2021/04/03 05:59:34;;;;;;;42.28;29.52;;;10.20;99.90;;;;;;5121814;28;20015;-70
2021/04/03 06:02:01;;;;;;;39.45;27.70;;;10.20;99.90;;;;;;5119590;27;20031;-71
2021/04/03 06:04:27;;;;;;;35.80;23.30;;;10.20;99.90;;;;;;5115256;28;20399;-69
2021/04/03 06:06:54;;;;;;;34.15;23.83;;;10.10;99.90;;;;;;5118068;28;20024;-69
2021/04/03 06:09:20;;;;;;;29.35;21.17;;;10.00;99.90;;;;;;5115290;28;20413;-68
2021/04/03 06:11:48;;;;;;;38.85;26.73;;;10.10;99.90;;;;;;5116950;28;20016;-69
2021/04/03 06:14:16;;;;;;;34.55;23.25;;;10.00;99.90;;;;;;5114571;28;20020;-70
2021/04/03 06:16:49;;;;;;;35.00;24.33;;;10.00;99.90;;;;;;5112584;28;20007;-70
2021/04/03 06:19:22;;;;;;;36.90;24.73;;;10.00;99.90;;;;;;5100996;28;20047;-67
2021/04/03 06:22:01;;;;;;;34.88;26.10;;;10.00;99.90;;;;;;5099034;28;20032;-73
2021/04/03 06:24:33;;;;;;;40.53;27.98;;;9.90;99.90;;;;;;5099900;28;20005;-73
2021/04/03 06:27:16;;;;;;;42.60;26.33;;;9.90;99.90;;;;;;5100289;28;20023;-71
2021/04/03 06:29:47;;;;;;;30.15;21.67;;;10.10;99.90;;;;;;5101992;28;20036;-74
2021/04/03 06:32:31;;;;;;;33.78;21.80;;;9.90;99.90;;;;;;5100035;28;20105;-73
2021/04/03 06:34:57;;;;;;;33.42;22.17;;;10.10;99.90;;;;;;5101573;28;20028;-75
2021/04/03 06:37:32;;;;;;;36.38;24.88;;;10.30;99.90;;;;;;5099633;28;20024;-67
2021/04/03 06:40:05;;;;;;;38.78;25.88;;;10.30;99.90;;;;;;5100250;28;20020;-68
2021/04/03 06:42:51;;;;;;;35.47;25.50;;;10.30;99.90;;;;;;5100355;28;20023;-68
2021/04/03 06:45:24;;;;;;;35.53;24.85;;;10.20;99.90;;;;;;5101273;28;20024;-74
2021/04/03 06:47:52;;;;;;;43.58;30.67;;;10.10;99.90;;;;;;5099594;28;20030;-69
2021/04/03 06:50:21;;;;;;;48.35;31.80;;;10.20;99.90;;;;;;5099366;28;20036;-72
2021/04/03 06:52:47;;;;;;;44.97;30.02;;;10.10;99.90;;;;;;5101378;28;20007;-68
2021/04/03 06:55:16;;;;;;;35.70;24.98;;;10.50;99.90;;;;;;5116096;28;20570;-75
2021/04/03 06:57:43;;;;;;;35.40;24.25;;;10.40;99.90;;;;;;5098602;28;20024;-69
2021/04/03 07:00:10;;;;;;;37.20;25.45;;;10.20;99.90;;;;;;5097927;28;20541;-68
2021/04/03 07:02:44;;;;;;;96.72;57.13;;;10.10;99.90;;;;;;5099947;28;20499;-68
2021/04/03 07:05:14;;;;;;;83.47;55.63;;;10.20;99.90;;;;;;5098946;28;20024;-68
2021/04/03 07:07:43;;;;;;;56.67;41.25;;;10.20;99.90;;;;;;5099396;28;20051;-73
2021/04/03 07:10:14;;;;;;;32.80;24.60;;;10.10;99.90;;;;;;5098238;28;20492;-74
2021/04/03 07:12:41;;;;;;;50.35;39.25;;;10.10;99.90;;;;;;5098951;28;20020;-72
2021/04/03 07:15:09;;;;;;;53.95;36.85;;;10.10;99.90;;;;;;5098757;28;20925;-75
2021/04/03 07:17:45;;;;;;;110.53;64.18;;;10.20;99.90;;;;;;5100591;28;20034;-72
2021/04/03 07:20:13;;;;;;;121.95;60.70;;;10.10;99.90;;;;;;5098444;28;20044;-67
2021/04/03 07:22:42;;;;;;;283.67;129.80;;;10.00;99.90;;;;;;5096778;28;20020;-74
2021/04/03 07:25:09;;;;;;;187.30;84.38;;;10.10;99.90;;;;;;5099931;28;20481;-69
2021/04/03 07:27:44;;;;;;;96.38;62.90;;;10.20;99.90;;;;;;5098925;28;20042;-74
2021/04/03 07:30:10;;;;;;;;;;;10.10;99.90;;;;;;5099173;28;20024;-67
2021/04/03 07:32:46;;;;;;;102.85;53.17;;;10.20;99.90;;;;;;5099764;28;19924;-74
2021/04/03 07:35:21;;;;;;;202.82;71.10;;;10.40;99.90;;;;;;5100919;28;20023;-69
2021/04/03 07:37:48;;;;;;;119.55;45.13;;;10.30;99.90;;;;;;5099551;28;20028;-71
2021/04/03 07:40:24;;;;;;;140.32;56.40;;;10.50;99.90;;;;;;5096691;28;20035;-69
2021/04/03 07:42:51;;;;;;;131.70;56.60;;;10.60;99.90;;;;;;5102680;28;20043;-74
2021/04/03 07:45:42;;;;;;;191.88;65.10;;;10.70;99.90;;;;;;5102364;28;20024;-73
2021/04/03 07:48:15;;;;;;;171.65;66.80;;;10.50;99.90;;;;;;5100456;28;20409;-71
2021/04/03 07:50:49;;;;;;;101.63;46.65;;;10.60;99.90;;;;;;5101956;28;20043;-74
2021/04/03 07:53:33;;;;;;;;;;;10.60;99.90;;;;;;5099948;28;20382;-72
2021/04/03 07:55:59;;;;;;;92.85;39.33;;;10.50;99.90;;;;;;5102655;28;19904;-75
2021/04/03 07:58:27;;;;;;;92.80;43.83;;;10.30;99.90;;;;;;5102817;28;20477;-70
2021/04/03 08:00:54;;;;;;;99.65;46.33;;;10.30;99.90;;;;;;5099418;28;20028;-70
2021/04/03 08:03:28;;;;;;;81.63;43.35;;;10.50;99.90;;;;;;5099443;28;20369;-76
2021/04/03 08:06:06;;;;;;;82.10;46.08;;;10.50;99.90;;;;;;5100060;28;20062;-70
2021/04/03 08:08:34;;;;;;;75.00;42.72;;;10.60;99.90;;;;;;5100975;28;20472;-81
2021/04/03 08:11:11;;;;;;;39.45;26.92;;;10.60;99.90;;;;;;5099814;28;20046;-68
2021/04/03 08:13:51;;;;;;;47.67;31.10;;;10.40;99.90;;;;;;5099245;28;20362;-71
2021/04/03 08:16:18;;;;;;;53.97;35.35;;;10.50;99.90;;;;;;5100979;28;20020;-70
2021/04/03 08:18:50;;;;;;;43.47;27.15;;;10.60;99.90;;;;;;5098673;28;20135;-70
2021/04/03 08:21:17;;;;;;;50.72;32.28;;;10.60;99.90;;;;;;5099608;28;20023;-76
2021/04/03 08:23:54;;;;;;;35.30;24.38;;;10.70;99.90;;;;;;5101676;28;20024;-79
2021/04/03 08:26:25;;;;;;;37.17;26.00;;;10.60;99.90;;;;;;5103963;28;20038;-78
2021/04/03 08:28:52;;;;;;;40.78;27.90;;;10.70;99.90;;;;;;5100589;28;20028;-78
2021/04/03 08:31:26;;;;;;;39.83;26.10;;;10.70;99.90;;;;;;5098088;28;20043;-80
2021/04/03 08:33:57;;;;;;;33.92;23.08;;;10.90;99.90;;;;;;5097386;28;20111;-80
2021/04/03 08:36:25;;;;;;;31.10;23.27;;;10.80;99.90;;;;;;5098161;28;20025;-78
2021/04/03 08:38:54;;;;;;;31.75;22.02;;;10.70;99.90;;;;;;5098304;28;20020;-77
2021/04/03 08:41:28;;;;;;;25.67;18.27;;;10.60;99.90;;;;;;5097436;28;20016;-78
2021/04/03 08:43:55;;;;;;;33.40;22.63;;;10.50;99.90;;;;;;5097882;28;20031;-73
2021/04/03 08:46:22;;;;;;;34.53;24.00;;;10.50;99.90;;;;;;5097694;28;20032;-72
2021/04/03 08:48:56;;;;;;;36.53;25.17;;;10.60;99.90;;;;;;5095467;28;20032;-78
2021/04/03 08:51:22;;;;;;;53.63;35.33;;;10.50;99.90;;;;;;5097854;28;20470;-78
2021/04/03 08:53:51;;;;;;;39.15;27.70;;;10.50;99.90;;;;;;5096092;28;20119;-77
2021/04/03 08:56:28;;;;;;;85.80;59.65;;;10.50;99.90;;;;;;5097662;28;20024;-77
2021/04/03 08:58:56;;;;;;;48.40;35.42;;;10.50;99.90;;;;;;5098756;28;20023;-73
2021/04/03 09:01:23;;;;;;;42.13;33.03;;;10.60;99.90;;;;;;5099019;28;20018;-79
2021/04/03 09:03:53;;;;;;;37.05;24.60;;;10.50;99.90;;;;;;5098471;28;20055;-78
2021/04/03 09:06:41;;;;;;;44.67;31.77;;;10.40;99.90;;;;;;5098725;28;20020;-78
2021/04/03 09:09:08;;;;;;;35.83;24.90;;;10.40;99.90;;;;;;5100850;28;20031;-75
2021/04/03 09:11:34;;;;;;;35.05;25.35;;;10.50;99.90;;;;;;5099471;28;20032;-72
2021/04/03 09:14:01;;;;;;;33.58;24.10;;;10.40;99.90;;;;;;5097658;28;20038;-71
2021/04/03 09:16:35;;;;;;;27.75;20.58;;;10.50;99.90;;;;;;5099800;28;20031;-71
2021/04/03 09:19:01;;;;;;;;;;;10.60;99.90;;;;;;5099025;28;20044;-72
2021/04/03 09:21:28;;;;;;;24.60;18.23;;;10.70;99.90;;;;;;5097597;28;20064;-71
2021/04/03 09:23:54;;;;;;;27.38;21.38;;;10.50;99.90;;;;;;5096038;28;20032;-72
2021/04/03 09:26:36;;;;;;;36.28;28.65;;;10.40;99.90;;;;;;5110475;28;20030;-72
2021/04/03 09:29:10;;;;;;;48.25;33.22;;;10.50;99.90;;;;;;5119042;28;20015;-76
2021/04/03 09:31:46;;;;;;;56.42;41.42;;;10.60;99.90;;;;;;5118386;28;20036;-76
2021/04/03 09:34:15;;;;;;;31.00;22.92;;;10.70;99.90;;;;;;5118801;28;20073;-78
2021/04/03 09:36:43;;;;;;;25.50;17.23;;;10.70;99.90;;;;;;5120280;28;20022;-76
2021/04/03 09:39:14;;;;;;;42.40;31.23;;;10.90;99.90;;;;;;5118558;28;20031;-70
2021/04/03 09:41:54;;;;;;;69.72;47.92;;;10.90;99.90;;;;;;5117851;28;20016;-71
2021/04/03 09:44:23;;;;;;;79.47;49.17;;;10.80;99.60;;;;;;5117739;27;20015;-78
2021/04/03 09:46:49;;;;;;;117.22;72.05;;;11.00;99.90;;;;;;5116800;28;20019;-76
2021/04/03 09:49:16;;;;;;;71.43;60.03;;;10.90;99.10;;;;;;5117193;28;20425;-71
2021/04/03 09:51:43;;;;;;;32.22;27.02;;;10.90;98.10;;;;;;5118089;28;20020;-76
2021/04/03 09:54:09;;;;;;;18.83;14.82;;;10.90;97.90;;;;;;5116676;28;20473;-76
2021/04/03 09:56:34;;;;;;;22.60;16.30;;;11.10;98.00;;;;;;5116239;28;20072;-72
2021/04/03 09:59:00;;;;;;;15.10;11.18;;;11.30;98.70;;;;;;5116248;28;20023;-77
2021/04/03 10:01:27;;;;;;;45.50;30.85;;;11.10;97.00;;;;;;5118907;28;20406;-79
2021/04/03 10:03:55;;;;;;;56.28;32.15;;;11.00;94.60;;;;;;5120170;28;20024;-73
2021/04/03 10:06:20;;;;;;;73.70;41.92;;;11.00;94.90;;;;;;5117182;28;20012;-72
2021/04/03 10:08:46;;;;;;;49.70;28.80;;;11.10;95.00;;;;;;5117786;28;20028;-73
2021/04/03 10:11:13;;;;;;;116.47;64.28;;;11.00;94.80;;;;;;5116739;28;20365;-78
2021/04/03 10:13:39;;;;;;;165.75;95.05;;;11.00;95.40;;;;;;5117213;28;20384;-78
2021/04/03 10:16:05;;;;;;;38.45;24.33;;;11.00;95.50;;;;;;5118220;28;20099;-73
2021/04/03 10:18:31;;;;;;;74.68;38.15;;;11.00;96.00;;;;;;5116474;28;20500;-77
2021/04/03 10:20:57;;;;;;;22.85;15.52;;;10.90;95.20;;;;;;5117584;28;20024;-72
2021/04/03 10:23:23;;;;;;;34.45;23.50;;;10.90;94.30;;;;;;5117690;28;20088;-73
2021/04/03 10:25:49;;;;;;;27.73;19.33;;;10.90;93.50;;;;;;5116852;28;20043;-70
2021/04/03 10:28:16;;;;;;;37.45;25.73;;;10.90;94.70;;;;;;5112774;28;20031;-70
2021/04/03 10:30:42;;;;;;;18.00;13.27;;;10.90;95.00;;;;;;5114461;28;20019;-76
2021/04/03 10:33:08;;;;;;;105.75;64.90;;;10.80;94.30;;;;;;5123630;28;20024;-74
2021/04/03 10:35:34;;;;;;;27.08;21.73;;;11.00;95.00;;;;;;5123352;28;20024;-74
2021/04/03 10:38:00;;;;;;;42.05;29.10;;;10.90;94.70;;;;;;5119032;28;20019;-77
2021/04/03 10:40:26;;;;;;;61.97;37.75;;;10.70;94.40;;;;;;5119643;28;20089;-74
2021/04/03 10:42:52;;;;;;;28.70;20.40;;;10.60;95.50;;;;;;5115573;28;20046;-75
2021/04/03 10:45:18;;;;;;;64.25;41.55;;;10.30;94.90;;;;;;5116227;28;20387;-75
2021/04/03 10:47:44;;;;;;;36.58;23.75;;;10.30;96.50;;;;;;5116524;28;20373;-75
2021/04/03 10:50:11;;;;;;;20.38;13.43;;;10.20;96.90;;;;;;5116243;28;20481;-70
2021/04/03 10:52:37;;;;;;;33.20;24.45;;;9.90;96.80;;;;;;5116299;28;20386;-75
2021/04/03 10:55:07;;;;;;;14.10;10.90;;;10.10;97.70;;;;;;5115880;28;20455;-75
2021/04/03 10:57:33;;;;;;;19.70;13.60;;;9.90;97.10;;;;;;5116346;27;20030;-75
2021/04/03 10:59:59;;;;;;;19.70;13.82;;;9.90;97.60;;;;;;5115120;28;20015;-76
2021/04/03 11:02:25;;;;;;;20.17;14.15;;;9.90;97.90;;;;;;5114854;28;20098;-70
2021/04/03 11:04:51;;;;;;;22.13;14.95;;;9.80;98.20;;;;;;5114432;28;20043;-76
2021/04/03 11:07:17;;;;;;;19.65;14.90;;;9.90;98.70;;;;;;5114376;28;20023;-75
2021/04/03 11:09:43;;;;;;;24.60;16.45;;;9.80;98.50;;;;;;5114882;28;20449;-75
2021/04/03 11:12:09;;;;;;;25.33;17.08;;;9.70;99.00;;;;;;5114700;28;20110;-74
2021/04/03 11:14:35;;;;;;;18.88;13.30;;;9.70;98.90;;;;;;5114284;28;20027;-74
2021/04/03 11:17:01;;;;;;;13.63;10.30;;;9.80;96.70;;;;;;5114224;28;20020;-75
2021/04/03 11:19:27;;;;;;;20.33;14.93;;;9.70;96.50;;;;;;5114948;28;20055;-74
2021/04/03 11:21:53;;;;;;;16.30;12.25;;;9.60;97.70;;;;;;5114477;28;20024;-75
2021/04/03 11:24:20;;;;;;;17.38;14.93;;;9.60;98.80;;;;;;5114691;28;20024;-74
2021/04/03 11:26:46;;;;;;;18.52;13.35;;;9.50;99.40;;;;;;5114801;28;20038;-75
2021/04/03 11:29:12;;;;;;;38.65;25.95;;;9.50;99.30;;;;;;5115354;28;20024;-74
2021/04/03 11:31:38;;;;;;;29.35;20.20;;;9.50;99.70;;;;;;5115440;28;20116;-74
2021/04/03 11:34:04;;;;;;;20.20;14.93;;;9.50;99.80;;;;;;5115299;28;20481;-70
2021/04/03 11:36:30;;;;;;;29.33;18.25;;;9.50;99.70;;;;;;5116098;28;20016;-74
2021/04/03 11:38:56;;;;;;;29.85;19.88;;;9.70;99.80;;;;;;5115461;28;20208;-73
2021/04/03 11:41:22;;;;;;;20.45;15.82;;;9.70;99.10;;;;;;5115225;28;20046;-74
2021/04/03 11:43:48;;;;;;;21.65;15.55;;;9.70;99.30;;;;;;5115543;28;20023;-74
2021/04/03 11:46:14;;;;;;;14.48;12.18;;;9.80;99.30;;;;;;5116142;28;20047;-71
2021/04/03 11:48:40;;;;;;;17.70;12.95;;;9.90;98.90;;;;;;5114294;28;20031;-71
2021/04/03 11:51:06;;;;;;;17.38;12.95;;;9.90;98.30;;;;;;5115087;28;20540;-74
2021/04/03 11:53:32;;;;;;;12.45;10.40;;;10.00;98.90;;;;;;5114066;28;20102;-76
2021/04/03 11:55:58;;;;;;;19.75;13.20;;;9.90;97.70;;;;;;5114059;28;20023;-74
2021/04/03 11:58:24;;;;;;;21.42;13.35;;;9.90;97.40;;;;;;5114808;28;20031;-74
2021/04/03 12:00:50;;;;;;;17.20;10.10;;;10.10;98.90;;;;;;5114142;28;20381;-75
2021/04/03 12:03:16;;;;;;;25.65;18.75;;;10.00;97.10;;;;;;5114527;28;20020;-74
2021/04/03 12:05:42;;;;;;;13.63;10.85;;;9.90;96.90;;;;;;5115213;28;20110;-74
2021/04/03 12:08:08;;;;;;;11.00;9.20;;;10.10;97.60;;;;;;5113552;28;20016;-74
2021/04/03 12:10:36;;;;;;;13.52;9.07;;;10.00;96.70;;;;;;5114093;28;20068;-71
2021/04/03 12:13:03;;;;;;;28.35;19.65;;;10.10;96.50;;;;;;5113939;28;20407;-74
2021/04/03 12:15:39;;;;;;;15.88;11.82;;;10.20;97.30;;;;;;5113903;28;20050;-74
2021/04/03 12:18:06;;;;;;;25.50;18.98;;;10.40;97.60;;;;;;5113699;28;20032;-74
2021/04/03 12:20:32;;;;;;;25.98;15.55;;;10.30;96.60;;;;;;5113710;28;20044;-74
2021/04/03 12:22:59;;;;;;;17.55;11.75;;;10.30;97.50;;;;;;5113547;28;20020;-75
2021/04/03 12:25:25;;;;;;;30.77;17.40;;;10.10;96.30;;;;;;5112563;28;20392;-72
2021/04/03 12:27:51;;;;;;;38.20;27.23;;;10.20;97.30;;;;;;5113717;28;20493;-75
2021/04/03 12:30:17;;;;;;;29.08;17.90;;;10.30;96.90;;;;;;5116869;28;20093;-76
2021/04/03 12:32:43;;;;;;;27.25;18.73;;;10.40;96.50;;;;;;5117738;28;20077;-74
2021/04/03 12:35:10;;;;;;;22.95;14.98;;;10.40;96.20;;;;;;5117950;28;20043;-75
2021/04/03 12:37:36;;;;;;;19.73;13.73;;;10.30;96.20;;;;;;5117457;28;20099;-73